createdAt,value
2018-12-16T00:00:24.488Z,938.94
2018-12-16T00:01:32.521Z,938.96
2018-12-16T00:02:40.607Z,938.87
2018-12-16T00:03:48.735Z,938.85
2018-12-16T00:04:56.706Z,938.87
2018-12-16T00:06:04.729Z,938.86
2018-12-16T00:07:12.806Z,938.82
2018-12-16T00:08:20.849Z,938.82
2018-12-16T00:09:28.986Z,938.72
2018-12-16T00:10:36.926Z,938.68
2018-12-16T00:11:44.995Z,938.70
2018-12-16T00:12:53.070Z,938.74
2018-12-16T00:14:01.195Z,938.71
2018-12-16T00:15:09.232Z,938.67
2018-12-16T00:16:17.194Z,938.63
2018-12-16T00:17:25.218Z,938.68
2018-12-16T00:18:33.312Z,938.70
2018-12-16T00:19:41.346Z,938.67
2018-12-16T00:20:49.495Z,938.66
2018-12-16T00:21:57.444Z,938.66
2018-12-16T00:23:05.500Z,938.64
2018-12-16T00:24:13.543Z,938.67
2018-12-16T00:25:21.979Z,938.66
2018-12-16T00:26:29.757Z,938.65
2018-12-16T00:27:37.719Z,938.59
2018-12-16T00:28:45.749Z,938.52
2018-12-16T00:29:53.890Z,938.51
2018-12-16T00:31:01.865Z,938.55
2018-12-16T00:32:09.957Z,938.50
2018-12-16T00:33:17.951Z,938.49
2018-12-16T00:34:26.017Z,938.52
2018-12-16T00:35:34.059Z,938.52
2018-12-16T00:36:42.119Z,938.49
2018-12-16T00:37:50.294Z,938.41
2018-12-16T00:38:58.213Z,938.38
2018-12-16T00:40:06.273Z,938.37
2018-12-16T00:41:14.317Z,938.33
2018-12-16T00:42:22.357Z,938.33
2018-12-16T00:43:30.405Z,938.33
2018-12-16T00:44:38.481Z,938.27
2018-12-16T00:45:46.619Z,938.29
2018-12-16T00:46:54.723Z,938.27
2018-12-16T00:48:02.673Z,938.27
2018-12-16T00:49:10.684Z,938.27
2018-12-16T00:50:18.732Z,938.23
2018-12-16T00:51:26.777Z,938.26
2018-12-16T00:52:36.524Z,938.26
2018-12-16T00:53:42.876Z,938.27
2018-12-16T00:54:50.934Z,938.33
2018-12-16T00:55:58.975Z,938.28
2018-12-16T00:57:07.021Z,938.29
2018-12-16T00:58:15.152Z,938.29
2018-12-16T00:59:23.134Z,938.31
2018-12-16T01:00:31.191Z,938.25
2018-12-16T01:01:39.235Z,938.24
2018-12-16T01:02:47.331Z,938.25
2018-12-16T01:03:55.417Z,938.28
2018-12-16T01:05:03.378Z,938.24
2018-12-16T01:06:11.429Z,938.24
2018-12-16T01:07:19.501Z,938.20
2018-12-16T01:08:27.535Z,938.23
2018-12-16T01:09:35.673Z,938.19
2018-12-16T01:10:43.683Z,938.18
2018-12-16T01:11:51.701Z,938.18
2018-12-16T01:12:59.737Z,938.20
2018-12-16T01:14:07.798Z,938.17
2018-12-16T01:15:15.940Z,938.14
2018-12-16T01:16:23.900Z,938.15
2018-12-16T01:17:32.042Z,938.12
2018-12-16T01:18:40.000Z,938.13
2018-12-16T01:19:48.044Z,938.06
2018-12-16T01:20:56.206Z,938.07
2018-12-16T01:22:04.154Z,938.07
2018-12-16T01:23:12.202Z,938.07
2018-12-16T01:24:20.249Z,938.07
2018-12-16T01:25:28.289Z,938.07
2018-12-16T01:26:36.445Z,938.07
2018-12-16T01:27:44.408Z,938.06
2018-12-16T01:28:52.454Z,938.06
2018-12-16T01:30:00.501Z,938.01
2018-12-16T01:31:08.565Z,938.01
2018-12-16T01:32:16.745Z,937.98
2018-12-16T01:33:24.764Z,937.92
2018-12-16T01:34:32.723Z,937.97
2018-12-16T01:35:40.770Z,937.98
2018-12-16T01:36:48.817Z,937.97
2018-12-16T01:37:56.956Z,937.94
2018-12-16T01:39:04.907Z,937.93
2018-12-16T01:40:12.996Z,937.93
2018-12-16T01:41:21.020Z,937.89
2018-12-16T01:42:29.183Z,937.91
2018-12-16T01:43:37.116Z,937.90
2018-12-16T01:44:45.149Z,937.95
2018-12-16T01:45:53.217Z,937.91
2018-12-16T01:47:01.274Z,937.90
2018-12-16T01:48:09.421Z,937.89
2018-12-16T01:49:17.374Z,937.85
2018-12-16T01:50:25.411Z,937.85
2018-12-16T01:51:33.505Z,937.86
2018-12-16T01:52:41.536Z,937.82
2018-12-16T01:53:49.684Z,937.81
2018-12-16T01:54:57.631Z,937.82
2018-12-16T01:56:05.658Z,937.82
2018-12-16T01:57:13.741Z,937.73
2018-12-16T01:58:21.891Z,937.74
2018-12-16T01:59:29.828Z,937.74
2018-12-16T02:00:37.902Z,937.68
2018-12-16T02:01:45.958Z,937.67
2018-12-16T02:02:54.143Z,937.70
2018-12-16T02:04:02.140Z,937.68
2018-12-16T02:05:10.087Z,937.66
2018-12-16T02:06:18.139Z,937.68
2018-12-16T02:07:26.187Z,937.65
2018-12-16T02:08:34.253Z,937.65
2018-12-16T02:09:42.413Z,937.61
2018-12-16T02:10:50.350Z,937.65
2018-12-16T02:11:58.405Z,937.67
2018-12-16T02:13:06.443Z,937.65
2018-12-16T02:14:14.511Z,937.63
2018-12-16T02:15:22.649Z,937.65
2018-12-16T02:16:30.730Z,937.64
2018-12-16T02:17:38.655Z,937.60
2018-12-16T02:18:46.820Z,937.57
2018-12-16T02:19:54.748Z,937.56
2018-12-16T02:21:02.898Z,937.52
2018-12-16T02:22:10.854Z,937.48
2018-12-16T02:23:18.919Z,937.45
2018-12-16T02:24:26.963Z,937.41
2018-12-16T02:25:35.019Z,937.41
2018-12-16T02:26:43.162Z,937.43
2018-12-16T02:27:51.114Z,937.39
2018-12-16T02:28:59.166Z,937.38
2018-12-16T02:30:07.218Z,937.30
2018-12-16T02:31:15.245Z,937.30
2018-12-16T02:32:23.428Z,937.30
2018-12-16T02:33:31.385Z,937.31
2018-12-16T02:34:39.526Z,937.24
2018-12-16T02:35:47.478Z,937.28
2018-12-16T02:36:55.514Z,937.22
2018-12-16T02:38:03.678Z,937.18
2018-12-16T02:39:11.637Z,937.18
2018-12-16T02:40:19.686Z,937.17
2018-12-16T02:41:27.730Z,937.15
2018-12-16T02:42:35.833Z,937.12
2018-12-16T02:43:43.837Z,937.10
2018-12-16T02:44:51.887Z,937.02
2018-12-16T02:45:59.933Z,937.02
2018-12-16T02:47:07.985Z,936.96
2018-12-16T02:48:17.172Z,936.97
2018-12-16T02:49:24.176Z,936.91
2018-12-16T02:50:32.132Z,936.90
2018-12-16T02:51:40.191Z,936.87
2018-12-16T02:52:48.337Z,936.84
2018-12-16T02:53:56.295Z,936.85
2018-12-16T02:55:04.332Z,936.86
2018-12-16T02:56:12.404Z,936.89
2018-12-16T02:57:20.455Z,936.86
2018-12-16T02:58:28.951Z,936.81
2018-12-16T02:59:36.544Z,936.77
2018-12-16T03:00:44.610Z,936.73
2018-12-16T03:01:52.660Z,936.74
2018-12-16T03:03:00.767Z,936.69
2018-12-16T03:04:08.884Z,936.69
2018-12-16T03:05:16.893Z,936.67
2018-12-16T03:06:24.844Z,936.67
2018-12-16T03:07:32.892Z,936.66
2018-12-16T03:08:40.952Z,936.65
2018-12-16T03:09:49.101Z,936.68
2018-12-16T03:10:57.060Z,936.72
2018-12-16T03:12:05.096Z,936.70
2018-12-16T03:13:13.160Z,936.69
2018-12-16T03:14:21.221Z,936.67
2018-12-16T03:15:29.360Z,936.71
2018-12-16T03:16:37.325Z,936.73
2018-12-16T03:17:45.343Z,936.69
2018-12-16T03:18:53.406Z,936.67
2018-12-16T03:20:01.552Z,936.66
2018-12-16T03:21:09.618Z,936.68
2018-12-16T03:22:17.586Z,936.63
2018-12-16T03:23:25.624Z,936.61
2018-12-16T03:24:33.662Z,936.56
2018-12-16T03:25:42.676Z,936.51
2018-12-16T03:26:49.783Z,936.44
2018-12-16T03:27:57.818Z,936.43
2018-12-16T03:29:05.858Z,936.43
2018-12-16T03:30:14.041Z,936.46
2018-12-16T03:31:22.074Z,936.48
2018-12-16T03:32:30.041Z,936.54
2018-12-16T03:33:38.087Z,936.60
2018-12-16T03:34:46.123Z,936.57
2018-12-16T03:35:54.177Z,936.56
2018-12-16T03:37:02.339Z,936.59
2018-12-16T03:38:10.284Z,936.63
2018-12-16T03:39:18.341Z,936.58
2018-12-16T03:40:26.391Z,936.59
2018-12-16T03:41:34.445Z,936.60
2018-12-16T03:42:42.540Z,936.57
2018-12-16T03:43:50.553Z,936.55
2018-12-16T03:44:58.616Z,936.60
2018-12-16T03:46:06.639Z,936.61
2018-12-16T03:47:14.693Z,936.59
2018-12-16T03:48:22.851Z,936.56
2018-12-16T03:49:30.818Z,936.55
2018-12-16T03:50:38.850Z,936.50
2018-12-16T03:51:46.897Z,936.47
2018-12-16T03:52:55.015Z,936.42
2018-12-16T03:54:03.009Z,936.37
2018-12-16T03:55:11.052Z,936.30
2018-12-16T03:56:19.107Z,936.30
2018-12-16T03:57:27.149Z,936.35
2018-12-16T03:58:35.199Z,936.30
2018-12-16T03:59:43.259Z,936.27
2018-12-16T04:00:51.317Z,936.24
2018-12-16T04:01:59.354Z,936.24
2018-12-16T04:03:07.512Z,936.29
2018-12-16T04:04:15.448Z,936.22
2018-12-16T04:05:23.514Z,936.22
2018-12-16T04:06:31.579Z,936.21
2018-12-16T04:07:39.716Z,936.18
2018-12-16T04:08:47.675Z,936.16
2018-12-16T04:09:55.701Z,936.10
2018-12-16T04:11:03.765Z,936.05
2018-12-16T04:12:11.828Z,936.07
2018-12-16T04:13:19.937Z,936.05
2018-12-16T04:14:27.934Z,936.03
2018-12-16T04:15:35.965Z,936.02
2018-12-16T04:16:44.024Z,936.04
2018-12-16T04:17:52.086Z,936.03
2018-12-16T04:19:00.558Z,936.03
2018-12-16T04:20:08.193Z,936.03
2018-12-16T04:21:16.240Z,936.01
2018-12-16T04:22:24.295Z,935.99
2018-12-16T04:23:32.338Z,936.01
2018-12-16T04:24:40.487Z,935.99
2018-12-16T04:25:48.426Z,936.00
2018-12-16T04:26:56.489Z,936.02
2018-12-16T04:28:04.548Z,935.99
2018-12-16T04:29:12.606Z,935.98
2018-12-16T04:30:20.885Z,935.97
2018-12-16T04:31:28.698Z,936.01
2018-12-16T04:32:36.750Z,935.98
2018-12-16T04:33:44.805Z,936.00
2018-12-16T04:34:52.832Z,935.98
2018-12-16T04:36:01.005Z,935.95
2018-12-16T04:37:08.954Z,935.98
2018-12-16T04:38:17.126Z,935.95
2018-12-16T04:39:25.041Z,935.94
2018-12-16T04:40:33.108Z,935.89
2018-12-16T04:41:41.248Z,935.94
2018-12-16T04:42:49.213Z,935.88
2018-12-16T04:43:57.260Z,935.85
2018-12-16T04:45:05.299Z,935.87
2018-12-16T04:46:13.371Z,935.90
2018-12-16T04:47:21.509Z,935.89
2018-12-16T04:48:29.482Z,935.87
2018-12-16T04:49:37.523Z,935.87
2018-12-16T04:50:45.556Z,935.85
2018-12-16T04:51:53.617Z,935.91
2018-12-16T04:53:01.771Z,935.92
2018-12-16T04:54:09.720Z,935.95
2018-12-16T04:55:17.770Z,935.97
2018-12-16T04:56:25.813Z,935.94
2018-12-16T04:57:33.973Z,935.94
2018-12-16T04:58:41.932Z,935.97
2018-12-16T04:59:49.982Z,935.94
2018-12-16T05:00:58.020Z,935.96
2018-12-16T05:02:06.102Z,935.98
2018-12-16T05:03:14.233Z,935.96
2018-12-16T05:04:22.167Z,935.99
2018-12-16T05:05:30.228Z,936.03
2018-12-16T05:06:38.310Z,936.01
2018-12-16T05:07:46.480Z,936.03
2018-12-16T05:08:54.394Z,936.03
2018-12-16T05:10:02.449Z,935.97
2018-12-16T05:11:10.518Z,935.99
2018-12-16T05:12:18.546Z,935.97
2018-12-16T05:13:26.690Z,936.01
2018-12-16T05:14:34.645Z,935.93
2018-12-16T05:15:42.703Z,936.03
2018-12-16T05:16:50.761Z,936.02
2018-12-16T05:17:58.811Z,936.01
2018-12-16T05:19:06.963Z,936.00
2018-12-16T05:20:14.896Z,936.00
2018-12-16T05:21:22.968Z,935.99
2018-12-16T05:22:31.107Z,935.97
2018-12-16T05:23:41.967Z,935.94
2018-12-16T05:24:47.206Z,936.01
2018-12-16T05:25:55.145Z,935.95
2018-12-16T05:27:03.224Z,935.96
2018-12-16T05:28:11.276Z,935.95
2018-12-16T05:29:19.327Z,935.96
2018-12-16T05:30:27.469Z,935.97
2018-12-16T05:31:35.412Z,935.94
2018-12-16T05:32:43.486Z,935.95
2018-12-16T05:33:51.695Z,935.99
2018-12-16T05:34:59.585Z,935.97
2018-12-16T05:36:07.734Z,935.96
2018-12-16T05:37:15.671Z,935.94
2018-12-16T05:38:23.819Z,935.94
2018-12-16T05:39:31.785Z,935.88
2018-12-16T05:40:39.844Z,935.87
2018-12-16T05:41:47.987Z,935.87
2018-12-16T05:42:55.941Z,935.87
2018-12-16T05:44:03.999Z,935.82
2018-12-16T05:45:12.045Z,935.80
2018-12-16T05:46:20.087Z,935.79
2018-12-16T05:47:28.236Z,935.79
2018-12-16T05:48:36.213Z,935.77
2018-12-16T05:49:44.251Z,935.76
2018-12-16T05:50:52.297Z,935.77
2018-12-16T05:52:00.358Z,935.73
2018-12-16T05:53:08.494Z,935.80
2018-12-16T05:54:16.468Z,935.83
2018-12-16T05:55:24.493Z,935.85
2018-12-16T05:56:32.549Z,935.84
2018-12-16T05:57:40.602Z,935.81
2018-12-16T05:58:48.752Z,935.85
2018-12-16T05:59:56.710Z,935.88
2018-12-16T06:01:04.765Z,935.93
2018-12-16T06:02:12.816Z,935.90
2018-12-16T06:03:20.877Z,935.94
2018-12-16T06:04:29.019Z,935.94
2018-12-16T06:05:36.973Z,935.91
2018-12-16T06:06:45.011Z,935.89
2018-12-16T06:07:53.114Z,935.92
2018-12-16T06:09:01.261Z,935.87
2018-12-16T06:10:09.262Z,935.87
2018-12-16T06:11:17.224Z,935.92
2018-12-16T06:12:25.263Z,935.95
2018-12-16T06:13:33.336Z,935.94
2018-12-16T06:14:41.417Z,936.01
2018-12-16T06:15:49.526Z,935.99
2018-12-16T06:16:57.495Z,935.99
2018-12-16T06:18:05.519Z,935.98
2018-12-16T06:19:13.618Z,935.98
2018-12-16T06:20:21.645Z,935.97
2018-12-16T06:21:29.797Z,935.96
2018-12-16T06:22:37.744Z,935.93
2018-12-16T06:23:45.790Z,936.01
2018-12-16T06:24:53.936Z,936.02
2018-12-16T06:26:01.899Z,936.13
2018-12-16T06:27:10.051Z,936.14
2018-12-16T06:28:18.008Z,936.16
2018-12-16T06:29:26.064Z,936.16
2018-12-16T06:30:34.103Z,936.18
2018-12-16T06:31:42.154Z,936.18
2018-12-16T06:32:50.306Z,936.18
2018-12-16T06:33:58.262Z,936.12
2018-12-16T06:35:06.310Z,936.10
2018-12-16T06:36:14.360Z,936.08
2018-12-16T06:37:22.558Z,935.99
2018-12-16T06:38:30.466Z,935.97
2018-12-16T06:39:38.523Z,935.97
2018-12-16T06:40:46.663Z,935.91
2018-12-16T06:41:55.281Z,935.89
2018-12-16T06:43:02.765Z,935.95
2018-12-16T06:44:10.720Z,935.92
2018-12-16T06:45:18.784Z,935.99
2018-12-16T06:46:26.825Z,935.99
2018-12-16T06:47:34.955Z,936.01
2018-12-16T06:48:42.937Z,935.95
2018-12-16T06:49:50.977Z,935.99
2018-12-16T06:50:59.044Z,935.96
2018-12-16T06:52:07.098Z,935.97
2018-12-16T06:53:15.211Z,935.94
2018-12-16T06:54:23.187Z,935.94
2018-12-16T06:55:31.225Z,935.95
2018-12-16T06:56:39.389Z,935.94
2018-12-16T06:57:47.435Z,935.90
2018-12-16T06:58:55.402Z,935.96
2018-12-16T07:00:03.442Z,935.93
2018-12-16T07:01:11.504Z,935.98
2018-12-16T07:02:19.567Z,936.01
2018-12-16T07:03:27.710Z,936.00
2018-12-16T07:04:35.644Z,936.04
2018-12-16T07:05:43.704Z,936.09
2018-12-16T07:06:53.189Z,936.11
2018-12-16T07:07:59.976Z,936.06
2018-12-16T07:09:07.963Z,936.06
2018-12-16T07:10:15.915Z,936.06
2018-12-16T07:11:24.038Z,936.05
2018-12-16T07:12:32.139Z,936.04
2018-12-16T07:13:40.079Z,936.06
2018-12-16T07:14:48.217Z,936.05
2018-12-16T07:15:56.179Z,936.07
2018-12-16T07:17:04.235Z,936.07
2018-12-16T07:18:12.305Z,936.04
2018-12-16T07:19:20.343Z,936.11
2018-12-16T07:20:28.493Z,936.09
2018-12-16T07:21:36.427Z,936.07
2018-12-16T07:22:44.500Z,936.06
2018-12-16T07:23:52.710Z,936.04
2018-12-16T07:25:00.588Z,936.03
2018-12-16T07:26:08.911Z,936.02
2018-12-16T07:27:16.723Z,936.09
2018-12-16T07:28:24.846Z,936.10
2018-12-16T07:29:32.811Z,936.12
2018-12-16T07:30:40.859Z,936.13
2018-12-16T07:31:49.004Z,936.18
2018-12-16T07:32:56.959Z,936.17
2018-12-16T07:34:05.019Z,936.16
2018-12-16T07:35:13.064Z,936.15
2018-12-16T07:36:21.109Z,936.10
2018-12-16T07:37:29.270Z,936.11
2018-12-16T07:38:37.221Z,936.12
2018-12-16T07:39:45.273Z,936.15
2018-12-16T07:40:53.317Z,936.05
2018-12-16T07:42:01.394Z,936.06
2018-12-16T07:43:09.519Z,936.12
2018-12-16T07:44:17.488Z,936.14
2018-12-16T07:45:25.503Z,936.21
2018-12-16T07:46:33.587Z,936.28
2018-12-16T07:47:41.808Z,936.27
2018-12-16T07:48:49.691Z,936.29
2018-12-16T07:49:57.743Z,936.28
2018-12-16T07:51:05.799Z,936.29
2018-12-16T07:52:13.834Z,936.30
2018-12-16T07:53:22.033Z,936.32
2018-12-16T07:54:29.941Z,936.30
2018-12-16T07:55:37.997Z,936.32
2018-12-16T07:56:46.064Z,936.28
2018-12-16T07:57:54.196Z,936.34
2018-12-16T07:59:02.259Z,936.32
2018-12-16T08:00:10.219Z,936.36
2018-12-16T08:01:18.251Z,936.32
2018-12-16T08:02:27.103Z,936.35
2018-12-16T08:03:36.707Z,936.38
2018-12-16T08:04:43.423Z,936.39
2018-12-16T08:05:52.676Z,936.36
2018-12-16T08:06:58.524Z,936.34
2018-12-16T08:08:06.696Z,936.32
2018-12-16T08:09:14.616Z,936.27
2018-12-16T08:10:22.772Z,936.26
2018-12-16T08:11:30.726Z,936.28
2018-12-16T08:12:38.785Z,936.34
2018-12-16T08:13:47.195Z,936.37
2018-12-16T08:14:54.860Z,936.36
2018-12-16T08:16:03.319Z,936.36
2018-12-16T08:17:10.997Z,936.31
2018-12-16T08:18:19.030Z,936.37
2018-12-16T08:19:27.091Z,936.38
2018-12-16T08:20:35.115Z,936.34
2018-12-16T08:21:43.637Z,936.30
2018-12-16T08:22:51.253Z,936.30
2018-12-16T08:23:59.302Z,936.26
2018-12-16T08:25:07.332Z,936.34
2018-12-16T08:26:15.381Z,936.32
2018-12-16T08:27:23.582Z,936.32
2018-12-16T08:28:31.522Z,936.38
2018-12-16T08:29:39.650Z,936.33
2018-12-16T08:30:47.628Z,936.34
2018-12-16T08:31:55.662Z,936.36
2018-12-16T08:33:03.822Z,936.38
2018-12-16T08:34:11.767Z,936.38
2018-12-16T08:35:19.829Z,936.42
2018-12-16T08:36:27.883Z,936.44
2018-12-16T08:37:36.038Z,936.46
2018-12-16T08:38:43.977Z,936.50
2018-12-16T08:39:52.032Z,936.48
2018-12-16T08:41:00.069Z,936.54
2018-12-16T08:42:08.173Z,936.55
2018-12-16T08:43:16.283Z,936.55
2018-12-16T08:44:24.261Z,936.59
2018-12-16T08:45:32.407Z,936.61
2018-12-16T08:46:40.352Z,936.55
2018-12-16T08:47:48.410Z,936.56
2018-12-16T08:48:56.548Z,936.55
2018-12-16T08:50:04.514Z,936.56
2018-12-16T08:51:12.561Z,936.59
2018-12-16T08:52:20.676Z,936.59
2018-12-16T08:53:28.677Z,936.57
2018-12-16T08:54:36.820Z,936.59
2018-12-16T08:55:44.759Z,936.50
2018-12-16T08:56:52.829Z,936.52
2018-12-16T08:58:00.920Z,936.57
2018-12-16T08:59:08.937Z,936.64
2018-12-16T09:00:17.074Z,936.59
2018-12-16T09:01:25.114Z,936.55
2018-12-16T09:02:33.086Z,936.50
2018-12-16T09:03:41.146Z,936.53
2018-12-16T09:04:49.209Z,936.57
2018-12-16T09:05:57.412Z,936.60
2018-12-16T09:07:05.283Z,936.61
2018-12-16T09:08:13.353Z,936.62
2018-12-16T09:09:21.416Z,936.63
2018-12-16T09:10:34.021Z,936.54
2018-12-16T09:11:37.614Z,936.58
2018-12-16T09:12:45.546Z,936.62
2018-12-16T09:13:53.625Z,936.61
2018-12-16T09:15:01.691Z,936.64
2018-12-16T09:16:09.737Z,936.68
2018-12-16T09:17:17.877Z,936.67
2018-12-16T09:18:25.814Z,936.71
2018-12-16T09:19:33.898Z,936.68
2018-12-16T09:20:41.950Z,936.73
2018-12-16T09:21:50.007Z,936.72
2018-12-16T09:22:58.147Z,936.71
2018-12-16T09:24:06.117Z,936.74
2018-12-16T09:25:14.158Z,936.70
2018-12-16T09:26:22.230Z,936.67
2018-12-16T09:27:30.404Z,936.64
2018-12-16T09:28:38.324Z,936.61
2018-12-16T09:29:46.392Z,936.60
2018-12-16T09:30:57.884Z,936.61
2018-12-16T09:32:02.868Z,936.58
2018-12-16T09:33:10.640Z,936.63
2018-12-16T09:34:18.613Z,936.72
2018-12-16T09:35:26.653Z,936.79
2018-12-16T09:36:34.707Z,936.89
2018-12-16T09:37:42.762Z,937.02
2018-12-16T09:38:50.916Z,937.00
2018-12-16T09:39:58.870Z,937.04
2018-12-16T09:41:06.918Z,937.11
2018-12-16T09:42:14.966Z,937.11
2018-12-16T09:43:23.040Z,937.08
2018-12-16T09:44:31.181Z,937.04
2018-12-16T09:45:39.157Z,936.98
2018-12-16T09:46:47.209Z,936.97
2018-12-16T09:47:55.287Z,936.96
2018-12-16T09:49:03.304Z,936.95
2018-12-16T09:50:11.499Z,936.93
2018-12-16T09:51:19.425Z,936.92
2018-12-16T09:52:27.476Z,936.93
2018-12-16T09:53:35.520Z,936.93
2018-12-16T09:54:44.303Z,936.85
2018-12-16T09:55:51.764Z,936.91
2018-12-16T09:56:59.815Z,936.91
2018-12-16T09:58:07.770Z,936.94
2018-12-16T09:59:15.783Z,936.99
2018-12-16T10:00:23.881Z,937.07
2018-12-16T10:01:32.020Z,937.10
2018-12-16T10:02:40.074Z,937.09
2018-12-16T10:03:48.020Z,937.13
2018-12-16T10:04:56.103Z,937.06
2018-12-16T10:06:04.152Z,937.03
2018-12-16T10:07:12.317Z,936.98
2018-12-16T10:08:20.265Z,936.99
2018-12-16T10:09:28.309Z,936.99
2018-12-16T10:10:36.366Z,936.97
2018-12-16T10:11:44.427Z,936.93
2018-12-16T10:12:52.587Z,936.96
2018-12-16T10:14:00.576Z,936.98
2018-12-16T10:15:08.607Z,936.93
2018-12-16T10:16:16.665Z,936.93
2018-12-16T10:17:24.711Z,936.92
2018-12-16T10:18:32.778Z,936.93
2018-12-16T10:19:40.838Z,936.95
2018-12-16T10:20:48.884Z,936.97
2018-12-16T10:21:56.936Z,936.95
2018-12-16T10:23:05.087Z,936.85
2018-12-16T10:24:13.057Z,936.85
2018-12-16T10:25:21.103Z,936.85
2018-12-16T10:26:29.163Z,936.83
2018-12-16T10:27:37.231Z,936.83
2018-12-16T10:28:45.417Z,936.76
2018-12-16T10:29:53.331Z,936.76
2018-12-16T10:31:01.842Z,936.82
2018-12-16T10:32:09.462Z,936.85
2018-12-16T10:33:17.611Z,936.90
2018-12-16T10:34:25.639Z,936.96
2018-12-16T10:35:33.626Z,936.91
2018-12-16T10:36:41.678Z,936.90
2018-12-16T10:37:49.722Z,936.87
2018-12-16T10:38:57.780Z,936.93
2018-12-16T10:40:05.938Z,936.94
2018-12-16T10:41:13.899Z,936.98
2018-12-16T10:42:23.022Z,936.96
2018-12-16T10:43:29.998Z,936.96
2018-12-16T10:44:38.062Z,936.98
2018-12-16T10:45:46.213Z,936.97
2018-12-16T10:46:54.182Z,936.96
2018-12-16T10:48:02.332Z,937.02
2018-12-16T10:49:10.295Z,936.99
2018-12-16T10:50:18.353Z,937.02
2018-12-16T10:51:26.489Z,937.06
2018-12-16T10:52:34.458Z,937.05
2018-12-16T10:53:42.517Z,936.99
2018-12-16T10:54:50.568Z,937.02
2018-12-16T10:55:58.622Z,937.04
2018-12-16T10:57:06.773Z,937.01
2018-12-16T10:58:14.720Z,937.05
2018-12-16T10:59:22.806Z,937.06
2018-12-16T11:00:30.860Z,937.05
2018-12-16T11:01:38.909Z,937.04
2018-12-16T11:02:47.060Z,937.02
2018-12-16T11:03:55.113Z,936.97
2018-12-16T11:05:03.076Z,937.01
2018-12-16T11:06:11.128Z,936.97
2018-12-16T11:07:19.192Z,936.97
2018-12-16T11:08:27.366Z,937.00
2018-12-16T11:09:35.318Z,937.02
2018-12-16T11:10:43.363Z,937.07
2018-12-16T11:11:51.413Z,937.07
2018-12-16T11:12:59.576Z,937.07
2018-12-16T11:14:07.521Z,937.12
2018-12-16T11:15:15.567Z,937.20
2018-12-16T11:16:23.636Z,937.18
2018-12-16T11:17:31.792Z,937.11
2018-12-16T11:18:39.849Z,937.14
2018-12-16T11:19:47.822Z,937.11
2018-12-16T11:20:55.868Z,937.14
2018-12-16T11:22:03.922Z,937.06
2018-12-16T11:23:12.074Z,937.05
2018-12-16T11:24:20.037Z,937.03
2018-12-16T11:25:28.111Z,937.08
2018-12-16T11:26:36.164Z,937.07
2018-12-16T11:27:44.209Z,937.15
2018-12-16T11:28:52.507Z,937.12
2018-12-16T11:30:00.363Z,937.12
2018-12-16T11:31:08.378Z,937.09
2018-12-16T11:32:16.438Z,937.11
2018-12-16T11:33:24.503Z,937.10
2018-12-16T11:34:32.704Z,937.08
2018-12-16T11:35:40.618Z,937.13
2018-12-16T11:36:48.666Z,937.14
2018-12-16T11:37:56.717Z,937.17
2018-12-16T11:39:04.781Z,937.13
2018-12-16T11:40:12.939Z,937.10
2018-12-16T11:41:20.888Z,937.13
2018-12-16T11:42:28.969Z,937.13
2018-12-16T11:43:37.010Z,937.10
2018-12-16T11:44:45.062Z,937.07
2018-12-16T11:45:53.230Z,937.08
2018-12-16T11:47:01.176Z,937.08
2018-12-16T11:48:09.219Z,937.06
2018-12-16T11:49:17.614Z,937.01
2018-12-16T11:50:25.735Z,937.08
2018-12-16T11:51:33.506Z,937.11
2018-12-16T11:52:41.599Z,937.09
2018-12-16T11:53:49.531Z,937.15
2018-12-16T11:54:57.575Z,937.20
2018-12-16T11:56:05.667Z,937.21
2018-12-16T11:57:13.750Z,937.16
2018-12-16T11:58:21.750Z,937.12
2018-12-16T11:59:29.812Z,937.14
2018-12-16T12:00:37.859Z,937.11
2018-12-16T12:01:45.916Z,937.09
2018-12-16T12:02:54.076Z,937.13
2018-12-16T12:04:02.092Z,937.11
2018-12-16T12:05:10.114Z,937.10
2018-12-16T12:06:18.254Z,937.13
2018-12-16T12:07:26.208Z,937.09
2018-12-16T12:08:34.244Z,937.08
2018-12-16T12:09:42.331Z,937.07
2018-12-16T12:10:50.396Z,937.10
2018-12-16T12:11:58.438Z,937.04
2018-12-16T12:13:06.600Z,937.07
2018-12-16T12:14:14.559Z,937.09
2018-12-16T12:15:22.601Z,937.09
2018-12-16T12:16:30.656Z,937.18
2018-12-16T12:17:38.811Z,937.18
2018-12-16T12:18:46.780Z,937.15
2018-12-16T12:19:54.826Z,937.12
2018-12-16T12:21:02.894Z,937.11
2018-12-16T12:22:11.399Z,937.15
2018-12-16T12:23:19.153Z,937.07
2018-12-16T12:24:27.062Z,937.06
2018-12-16T12:25:35.088Z,937.09
2018-12-16T12:26:43.170Z,937.08
2018-12-16T12:27:51.249Z,937.16
2018-12-16T12:28:59.778Z,937.11
2018-12-16T12:30:07.347Z,937.08
2018-12-16T12:31:15.383Z,937.05
2018-12-16T12:32:23.477Z,937.04
2018-12-16T12:33:31.595Z,937.00
2018-12-16T12:34:39.670Z,937.01
2018-12-16T12:35:47.636Z,937.05
2018-12-16T12:36:55.669Z,936.99
2018-12-16T12:38:03.822Z,937.02
2018-12-16T12:39:11.816Z,937.01
2018-12-16T12:40:20.104Z,937.06
2018-12-16T12:41:27.921Z,937.04
2018-12-16T12:42:35.971Z,937.04
2018-12-16T12:43:44.031Z,937.02
2018-12-16T12:44:52.142Z,937.03
2018-12-16T12:46:00.300Z,936.96
2018-12-16T12:47:08.190Z,937.00
2018-12-16T12:48:16.256Z,937.05
2018-12-16T12:49:24.317Z,937.02
2018-12-16T12:50:32.367Z,937.01
2018-12-16T12:51:40.514Z,937.03
2018-12-16T12:52:48.555Z,937.00
2018-12-16T12:53:56.544Z,936.97
2018-12-16T12:55:04.603Z,937.00
2018-12-16T12:56:12.651Z,937.00
2018-12-16T12:57:20.800Z,936.98
2018-12-16T12:58:28.754Z,937.03
2018-12-16T12:59:36.822Z,937.04
2018-12-16T13:00:44.875Z,937.01
2018-12-16T13:01:52.927Z,937.09
2018-12-16T13:03:01.031Z,937.04
2018-12-16T13:04:09.039Z,937.07
2018-12-16T13:05:17.087Z,937.00
2018-12-16T13:06:25.122Z,937.02
2018-12-16T13:07:33.304Z,937.05
2018-12-16T13:08:41.261Z,937.05
2018-12-16T13:09:49.326Z,937.07
2018-12-16T13:10:57.379Z,937.04
2018-12-16T13:12:05.414Z,937.05
2018-12-16T13:13:13.552Z,937.06
2018-12-16T13:14:21.553Z,937.03
2018-12-16T13:15:29.633Z,937.07
2018-12-16T13:16:37.653Z,937.09
2018-12-16T13:17:45.775Z,937.15
2018-12-16T13:18:53.761Z,937.15
2018-12-16T13:20:01.826Z,937.16
2018-12-16T13:21:09.876Z,937.16
2018-12-16T13:22:17.947Z,937.09
2018-12-16T13:23:26.127Z,937.09
2018-12-16T13:24:34.048Z,937.09
2018-12-16T13:25:42.112Z,937.02
2018-12-16T13:26:50.161Z,937.01
2018-12-16T13:27:58.221Z,937.03
2018-12-16T13:29:06.399Z,937.06
2018-12-16T13:30:14.324Z,937.06
2018-12-16T13:31:22.397Z,937.05
2018-12-16T13:32:30.438Z,937.08
2018-12-16T13:33:38.508Z,937.09
2018-12-16T13:34:46.664Z,937.09
2018-12-16T13:35:54.880Z,937.11
2018-12-16T13:37:02.673Z,937.10
2018-12-16T13:38:10.850Z,937.15
2018-12-16T13:39:18.790Z,937.17
2018-12-16T13:40:26.941Z,937.15
2018-12-16T13:41:34.871Z,937.15
2018-12-16T13:42:42.945Z,937.14
2018-12-16T13:43:51.819Z,937.16
2018-12-16T13:44:59.089Z,937.14
2018-12-16T13:46:07.800Z,937.11
2018-12-16T13:47:15.176Z,937.06
2018-12-16T13:48:23.261Z,937.08
2018-12-16T13:49:31.302Z,937.05
2018-12-16T13:50:39.362Z,937.03
2018-12-16T13:51:47.498Z,937.01
2018-12-16T13:52:55.500Z,937.06
2018-12-16T13:54:03.539Z,937.02
2018-12-16T13:55:11.576Z,937.10
2018-12-16T13:56:19.625Z,937.14
2018-12-16T13:57:27.795Z,937.17
2018-12-16T13:58:35.727Z,937.21
2018-12-16T13:59:43.831Z,937.26
2018-12-16T14:00:51.850Z,937.33
2018-12-16T14:02:00.023Z,937.31
2018-12-16T14:03:07.979Z,937.42
2018-12-16T14:04:16.016Z,937.43
2018-12-16T14:05:24.073Z,937.47
2018-12-16T14:06:32.134Z,937.45
2018-12-16T14:07:40.248Z,937.46
2018-12-16T14:08:49.003Z,937.46